createdAt,value
2019-02-26T00:03:04.536Z,2.10
2019-02-26T00:07:07.042Z,2.14
2019-02-26T00:11:13.422Z,2.04
2019-02-26T00:15:16.828Z,2.06
2019-02-26T00:19:20.236Z,2.04
2019-02-26T00:23:25.345Z,2.01
2019-02-26T00:27:30.623Z,1.98
2019-02-26T00:31:33.842Z,1.90
2019-02-26T00:35:39.335Z,1.99
2019-02-26T00:39:42.302Z,2.09
2019-02-26T00:43:45.705Z,1.90
2019-02-26T00:47:49.124Z,1.49
2019-02-26T00:51:52.854Z,1.54
2019-02-26T00:55:58.461Z,1.56
2019-02-26T01:00:03.405Z,1.50
2019-02-26T01:04:06.436Z,1.57
2019-02-26T01:08:12.364Z,1.50
2019-02-26T01:12:16.635Z,1.41
2019-02-26T01:16:20.152Z,1.35
2019-02-26T01:20:25.537Z,1.21
2019-02-26T01:24:30.468Z,0.98
2019-02-26T01:28:33.555Z,1.04
2019-02-26T01:32:36.958Z,0.95
2019-02-26T01:36:42.631Z,1.07
2019-02-26T01:40:48.454Z,0.95
2019-02-26T01:44:51.585Z,0.98
2019-02-26T01:48:55.201Z,1.02
2019-02-26T01:53:01.064Z,1.04
2019-02-26T01:57:04.531Z,0.93
2019-02-26T02:01:09.972Z,0.91
2019-02-26T02:05:13.035Z,0.94
2019-02-26T02:09:18.673Z,1.01
2019-02-26T02:13:25.947Z,1.04
2019-02-26T02:17:28.687Z,1.12
2019-02-26T02:21:33.788Z,1.17
2019-02-26T02:25:38.742Z,1.11
2019-02-26T02:29:45.706Z,1.18
2019-02-26T02:33:47.867Z,1.27
2019-02-26T02:37:53.549Z,1.30
2019-02-26T02:41:57.435Z,1.40
2019-02-26T02:46:01.327Z,1.37
2019-02-26T02:50:09.192Z,1.40
2019-02-26T02:54:15.348Z,1.24
2019-02-26T02:58:20.167Z,1.08
2019-02-26T03:02:23.083Z,0.45
2019-02-26T03:06:28.103Z,0.41
2019-02-26T03:10:34.190Z,0.55
2019-02-26T03:14:39.114Z,0.62
2019-02-26T03:18:41.729Z,0.54
2019-02-26T03:22:48.748Z,0.53
2019-02-26T03:26:50.192Z,0.41
2019-02-26T03:30:53.614Z,0.50
2019-02-26T03:35:02.152Z,0.76
2019-02-26T03:39:02.844Z,0.92
2019-02-26T03:43:07.739Z,0.94
2019-02-26T03:47:11.328Z,1.06
2019-02-26T03:51:17.131Z,0.69
2019-02-26T03:55:19.993Z,0.73
2019-02-26T03:59:23.409Z,0.95
2019-02-26T04:03:26.915Z,0.97
2019-02-26T04:07:33.219Z,0.93
2019-02-26T04:11:35.468Z,0.80
2019-02-26T04:15:38.942Z,0.69
2019-02-26T04:19:44.523Z,0.61
2019-02-26T04:23:47.539Z,0.58
2019-02-26T04:27:56.365Z,0.50
2019-02-26T04:32:20.965Z,0.60
2019-02-26T04:36:28.435Z,0.65
2019-02-26T04:40:36.317Z,0.68
2019-02-26T04:45:05.866Z,0.69
2019-02-26T04:49:08.408Z,0.71
2019-02-26T04:53:11.722Z,0.84
2019-02-26T04:57:15.036Z,0.75
2019-02-26T05:01:19.206Z,0.86
2019-02-26T05:05:25.169Z,0.92
2019-02-26T05:09:29.807Z,1.09
2019-02-26T05:13:34.625Z,1.21
2019-02-26T05:17:38.024Z,1.21
2019-02-26T05:21:41.519Z,1.28
2019-02-26T05:25:44.937Z,1.36
2019-02-26T05:29:49.641Z,1.25
2019-02-26T05:33:55.329Z,1.21
2019-02-26T05:38:01.020Z,1.12
2019-02-26T05:42:06.175Z,0.99
2019-02-26T05:46:08.844Z,0.61
2019-02-26T05:50:16.186Z,0.55
2019-02-26T05:54:20.818Z,0.25
2019-02-26T05:58:22.430Z,0.28
2019-02-26T06:02:25.845Z,0.16
2019-02-26T06:06:29.254Z,0.06
2019-02-26T06:10:32.723Z,-0.19
2019-02-26T06:14:39.003Z,-0.15
2019-02-26T06:18:42.044Z,-0.07
2019-02-26T06:22:46.285Z,0.10
2019-02-26T06:26:49.677Z,0.23
2019-02-26T06:30:54.997Z,0.43
2019-02-26T06:34:58.239Z,0.68
2019-02-26T06:39:03.691Z,0.92
2019-02-26T06:43:06.791Z,1.10
2019-02-26T06:47:10.200Z,1.59
2019-02-26T06:51:13.622Z,2.07
2019-02-26T06:55:17.033Z,2.67
2019-02-26T06:59:25.174Z,2.94
2019-02-26T07:03:28.856Z,4.77
2019-02-26T07:07:32.566Z,7.52
2019-02-26T07:11:37.903Z,9.26
2019-02-26T07:15:43.066Z,9.78
2019-02-26T07:19:46.378Z,9.05
2019-02-26T07:23:51.634Z,7.96
2019-02-26T07:27:56.340Z,8.66
2019-02-26T07:32:00.196Z,8.87
2019-02-26T07:36:04.169Z,8.51
2019-02-26T07:40:13.015Z,7.47
2019-02-26T07:44:18.638Z,7.05
2019-02-26T07:48:23.356Z,7.35
2019-02-26T07:52:28.285Z,7.54
2019-02-26T07:56:32.736Z,8.38
2019-02-26T08:00:37.687Z,9.41
2019-02-26T08:04:43.506Z,9.43
2019-02-26T08:08:48.814Z,10.22
2019-02-26T08:12:51.795Z,10.38
2019-02-26T08:16:56.210Z,11.43
2019-02-26T08:21:02.451Z,11.43
2019-02-26T08:25:07.215Z,10.62
2019-02-26T08:29:12.468Z,11.46
2019-02-26T08:33:16.007Z,10.87
2019-02-26T08:37:19.349Z,10.03
2019-02-26T08:41:22.717Z,11.00
2019-02-26T08:45:26.132Z,11.29
2019-02-26T08:49:29.541Z,10.42
2019-02-26T08:53:32.955Z,10.25
2019-02-26T08:57:36.354Z,10.00
2019-02-26T09:01:39.678Z,10.09
2019-02-26T09:05:43.068Z,10.67
2019-02-26T09:09:48.105Z,10.50
2019-02-26T09:13:51.626Z,11.62
2019-02-26T09:17:55.040Z,14.62
2019-02-26T09:21:58.764Z,16.39
2019-02-26T09:26:04.453Z,19.25
2019-02-26T09:30:11.746Z,21.01
2019-02-26T09:34:15.638Z,20.69
2019-02-26T09:38:22.493Z,20.73
2019-02-26T09:42:25.654Z,21.78
2019-02-26T09:46:31.205Z,20.33
2019-02-26T09:50:36.736Z,20.54
2019-02-26T09:54:42.696Z,20.08
2019-02-26T09:58:46.507Z,17.95
2019-02-26T10:02:51.900Z,19.00
2019-02-26T10:06:54.888Z,21.49
2019-02-26T10:11:00.315Z,22.70
2019-02-26T10:15:05.296Z,22.37
2019-02-26T10:19:10.215Z,23.50
2019-02-26T10:23:13.725Z,24.48
2019-02-26T10:27:17.157Z,25.61
2019-02-26T10:31:24.120Z,25.32
2019-02-26T10:35:33.180Z,25.27
2019-02-26T10:39:32.165Z,24.64
2019-02-26T10:43:35.577Z,25.05
2019-02-26T10:47:38.908Z,25.33
2019-02-26T10:51:43.050Z,26.17
2019-02-26T10:55:46.537Z,24.49
2019-02-26T10:59:49.953Z,25.36
2019-02-26T11:03:55.182Z,23.95
2019-02-26T11:08:01.872Z,23.21
2019-02-26T11:12:06.005Z,22.67
2019-02-26T11:16:08.822Z,22.53
2019-02-26T11:20:14.765Z,18.80
2019-02-26T11:24:18.062Z,18.05
2019-02-26T11:28:21.394Z,16.75
2019-02-26T11:32:24.707Z,15.28
2019-02-26T11:36:30.406Z,15.31
2019-02-26T11:40:33.686Z,15.25
2019-02-26T11:44:37.282Z,14.85
2019-02-26T11:48:40.701Z,15.05
2019-02-26T11:52:44.101Z,15.38
2019-02-26T11:56:49.812Z,15.45
2019-02-26T12:00:54.304Z,15.20
2019-02-26T12:04:59.903Z,14.78
2019-02-26T12:09:05.479Z,15.38
2019-02-26T12:13:08.214Z,14.97
2019-02-26T12:17:11.689Z,15.02
2019-02-26T12:21:15.237Z,15.00
2019-02-26T12:25:18.645Z,14.52
2019-02-26T12:29:23.576Z,14.65
2019-02-26T12:33:27.315Z,14.57
2019-02-26T12:37:31.330Z,15.16
2019-02-26T12:41:36.585Z,15.10
2019-02-26T12:45:40.675Z,15.28
2019-02-26T12:49:45.126Z,15.58
2019-02-26T12:53:50.081Z,15.40
2019-02-26T12:57:56.472Z,15.18
2019-02-26T13:01:58.749Z,14.79
2019-02-26T13:06:05.162Z,15.14
2019-02-26T13:10:13.455Z,15.51
2019-02-26T13:14:17.866Z,14.95
2019-02-26T13:18:21.293Z,14.82
2019-02-26T13:22:24.626Z,15.19
2019-02-26T13:26:27.984Z,15.53
2019-02-26T13:30:31.437Z,15.59
2019-02-26T13:34:34.826Z,14.98
2019-02-26T13:38:44.837Z,15.15
2019-02-26T13:42:50.229Z,15.36
2019-02-26T13:46:48.535Z,15.33
2019-02-26T13:50:51.989Z,15.40
2019-02-26T13:54:55.303Z,14.88
2019-02-26T13:58:58.776Z,14.98
2019-02-26T14:03:04.105Z,14.98
2019-02-26T14:07:07.325Z,14.87
2019-02-26T14:11:10.731Z,14.68
2019-02-26T14:15:27.129Z,14.55
2019-02-26T14:19:30.666Z,14.38
2019-02-26T14:23:35.165Z,14.34
2019-02-26T14:27:39.219Z,14.37
2019-02-26T14:31:42.628Z,14.24
2019-02-26T14:35:46.035Z,14.29
2019-02-26T14:39:49.546Z,14.26
2019-02-26T14:43:52.953Z,14.23
2019-02-26T14:47:56.367Z,14.23
2019-02-26T14:52:00.834Z,14.20
2019-02-26T14:56:04.219Z,13.99
2019-02-26T15:00:16.527Z,13.95
2019-02-26T15:04:20.035Z,13.70
2019-02-26T15:08:23.546Z,13.64
2019-02-26T15:12:26.958Z,13.45
2019-02-26T15:16:30.914Z,13.35
2019-02-26T15:20:34.698Z,13.23
2019-02-26T15:24:38.414Z,13.22
2019-02-26T15:28:41.925Z,13.05
2019-02-26T15:32:45.539Z,13.01
2019-02-26T15:36:48.860Z,12.95
2019-02-26T15:40:53.378Z,12.96
2019-02-26T15:44:57.671Z,12.83
2019-02-26T15:49:01.946Z,12.72
2019-02-26T15:53:07.261Z,12.56
2019-02-26T15:57:10.599Z,12.41
2019-02-26T16:01:15.213Z,12.27
2019-02-26T16:05:19.657Z,12.19
2019-02-26T16:09:23.082Z,12.11
2019-02-26T16:13:26.491Z,11.90
2019-02-26T16:17:29.857Z,11.71
2019-02-26T16:21:33.310Z,11.47
2019-02-26T16:25:36.722Z,11.34
2019-02-26T16:29:40.139Z,11.09
2019-02-26T16:33:46.387Z,10.82
2019-02-26T16:37:49.404Z,10.50
2019-02-26T16:41:52.811Z,10.32
2019-02-26T16:45:56.222Z,10.16
2019-02-26T16:50:11.921Z,9.80
2019-02-26T16:54:07.388Z,9.49
2019-02-26T16:58:09.932Z,9.09
2019-02-26T17:02:13.259Z,8.78
2019-02-26T17:06:20.501Z,8.30
2019-02-26T17:10:23.055Z,7.85
2019-02-26T17:14:26.407Z,7.58
2019-02-26T17:18:29.716Z,7.31
2019-02-26T17:22:33.045Z,6.98
2019-02-26T17:26:36.367Z,6.86
2019-02-26T17:30:39.762Z,6.91
2019-02-26T17:34:43.067Z,6.96
2019-02-26T17:38:46.374Z,7.01
2019-02-26T17:42:51.337Z,6.96
2019-02-26T17:46:55.346Z,6.81
2019-02-26T17:50:58.769Z,6.43
2019-02-26T17:55:02.129Z,6.28
2019-02-26T17:59:05.465Z,6.24
2019-02-26T18:03:08.875Z,6.33
2019-02-26T18:07:12.387Z,6.13
2019-02-26T18:11:15.795Z,6.42
2019-02-26T18:15:20.861Z,6.75
2019-02-26T18:19:24.228Z,6.44
2019-02-26T18:23:27.562Z,5.75
2019-02-26T18:27:31.152Z,5.32
2019-02-26T18:31:34.577Z,5.15
2019-02-26T18:35:37.991Z,5.05
2019-02-26T18:39:41.814Z,5.03
2019-02-26T18:43:47.521Z,5.00
2019-02-26T18:47:50.472Z,4.68
2019-02-26T18:51:53.886Z,4.39
2019-02-26T18:55:57.392Z,4.47
2019-02-26T19:00:00.824Z,4.49
2019-02-26T19:04:04.207Z,4.55
2019-02-26T19:08:07.616Z,4.31
2019-02-26T19:12:11.134Z,4.02
2019-02-26T19:16:14.541Z,3.96
2019-02-26T19:20:23.684Z,3.92
2019-02-26T19:24:27.103Z,3.99
2019-02-26T19:28:30.500Z,4.00
2019-02-26T19:32:34.016Z,4.15
2019-02-26T19:36:37.524Z,4.38
2019-02-26T19:40:43.737Z,4.64
2019-02-26T19:44:47.067Z,4.17
2019-02-26T19:48:50.517Z,3.65
2019-02-26T19:52:56.987Z,3.64
2019-02-26T19:56:59.074Z,3.21
2019-02-26T20:01:02.480Z,3.13
2019-02-26T20:05:09.523Z,3.26
2019-02-26T20:09:14.524Z,3.21
2019-02-26T20:13:17.936Z,3.30
2019-02-26T20:17:21.342Z,3.04
2019-02-26T20:21:25.781Z,2.83
2019-02-26T20:25:29.180Z,2.78
2019-02-26T20:29:32.591Z,2.52
2019-02-26T20:33:37.028Z,2.73
2019-02-26T20:37:40.742Z,2.80
2019-02-26T20:41:44.095Z,2.96
2019-02-26T20:45:48.691Z,2.67
2019-02-26T20:49:52.507Z,2.01
2019-02-26T20:53:56.218Z,1.84
2019-02-26T20:57:59.628Z,2.03
2019-02-26T21:02:03.045Z,2.15
2019-02-26T21:06:06.360Z,2.37
2019-02-26T21:10:14.997Z,2.27
2019-02-26T21:14:16.952Z,2.14
2019-02-26T21:18:20.360Z,1.85
2019-02-26T21:22:23.767Z,1.60
2019-02-26T21:26:27.067Z,1.57
2019-02-26T21:30:30.381Z,1.58
2019-02-26T21:34:33.789Z,1.57
2019-02-26T21:38:38.782Z,1.73
2019-02-26T21:42:42.250Z,1.93
2019-02-26T21:46:45.655Z,1.83
2019-02-26T21:50:49.062Z,1.77
2019-02-26T21:54:52.472Z,1.73
2019-02-26T21:58:56.947Z,1.69
2019-02-26T22:03:00.930Z,1.72
2019-02-26T22:07:04.350Z,1.50
2019-02-26T22:11:07.780Z,1.15
2019-02-26T22:15:13.710Z,0.95
2019-02-26T22:19:17.115Z,0.84
2019-02-26T22:23:20.443Z,0.84
2019-02-26T22:27:23.839Z,0.90
2019-02-26T22:31:28.945Z,1.01
2019-02-26T22:35:33.053Z,1.02
2019-02-26T22:39:36.707Z,1.20
2019-02-26T22:43:40.007Z,0.96
2019-02-26T22:47:44.553Z,0.80
2019-02-26T22:51:47.982Z,0.79
2019-02-26T22:55:51.395Z,0.80
2019-02-26T22:59:54.786Z,0.66
2019-02-26T23:03:58.205Z,0.76
2019-02-26T23:08:01.615Z,0.59
2019-02-26T23:12:05.663Z,0.45
2019-02-26T23:16:09.153Z,0.51
2019-02-26T23:20:12.558Z,0.23
2019-02-26T23:24:16.070Z,0.46
2019-02-26T23:28:21.700Z,0.19
2019-02-26T23:32:24.525Z,-0.11
2019-02-26T23:36:28.602Z,-0.28
2019-02-26T23:40:32.039Z,-0.45
2019-02-26T23:44:35.474Z,-0.29
2019-02-26T23:48:40.977Z,-0.17
2019-02-26T23:52:43.877Z,-0.06
2019-02-26T23:56:47.231Z,0.03
